Time;durP1;ratioP1;P1;durP2;ratioP2;P2;SDS_P1;SDS_P2;PMS_P1;PMS_P2;Temp;Humidity;BMP_temperature;BMP_pressure;BME280_temperature;BME280_humidity;BME280_pressure;Samples;Min_cycle;Max_cycle;Signal;HPM_P1;HPM_P2
2020/12/08 06:26:04;;;;;;;15.98;8.25;;;0.00;2201.60;;;;;;5112835;28;20043;-79
2020/12/08 06:28:30;;;;;;;11.35;7.30;;;0.00;2201.60;;;;;;5112481;28;20020;-82
2020/12/08 06:31:03;;;;;;;9.70;5.90;;;0.10;2201.60;;;;;;5110893;28;20408;-78
2020/12/08 06:33:30;;;;;;;7.82;5.13;;;0.20;2201.60;;;;;;5112950;28;20012;-78
2020/12/08 06:36:00;;;;;;;8.73;5.47;;;0.30;2201.60;;;;;;5112315;28;20376;-78
2020/12/08 06:38:27;;;;;;;11.65;6.65;;;0.40;2201.60;;;;;;5111798;28;20031;-78
2020/12/08 06:40:53;;;;;;;13.50;6.90;;;0.50;2201.60;;;;;;5111495;28;20047;-78
2020/12/08 06:43:19;;;;;;;19.30;8.60;;;0.60;2201.60;;;;;;5111490;28;20073;-78
2020/12/08 06:45:45;;;;;;;16.05;8.70;;;0.70;2201.60;;;;;;5115812;28;20015;-78
2020/12/08 06:48:18;;;;;;;13.07;8.20;;;0.70;2201.60;;;;;;5123511;28;20963;-78
2020/12/08 06:50:44;;;;;;;13.05;7.60;;;0.80;2201.60;;;;;;5088952;28;20036;-78
2020/12/08 06:53:10;;;;;;;14.85;7.63;;;0.90;2201.60;;;;;;5102236;28;20054;-79
2020/12/08 06:56:02;;;;;;;10.60;6.10;;;0.90;2201.60;;;;;;5109989;28;20484;-79
2020/12/08 06:58:28;;;;;;;11.00;6.78;;;25.60;2201.60;;;;;;5088327;28;20389;-79
2020/12/08 07:00:54;;;;;;;7.35;5.07;;;25.60;2201.60;;;;;;5088981;28;20045;-79
2020/12/08 07:03:20;;;;;;;7.65;4.80;;;25.70;2201.60;;;;;;5091120;28;20024;-79
2020/12/08 07:05:46;;;;;;;8.27;4.93;;;25.70;2201.60;;;;;;5088877;28;20032;-80
2020/12/08 07:08:15;;;;;;;8.75;5.50;;;25.80;2201.60;;;;;;5090554;28;20466;-77
2020/12/08 07:10:42;;;;;;;10.95;6.07;;;25.80;2201.60;;;;;;5106074;28;20385;-77
2020/12/08 07:13:13;;;;;;;13.35;7.60;;;25.80;2201.60;;;;;;5090783;28;20021;-77
2020/12/08 07:15:40;;;;;;;18.55;10.35;;;25.90;2201.60;;;;;;5090819;28;20028;-78
2020/12/08 07:18:09;;;;;;;24.15;11.10;;;26.00;2201.60;;;;;;5105913;28;20028;-77
2020/12/08 07:21:15;;;;;;;14.73;8.40;;;26.00;2201.60;;;;;;5109084;28;20047;-77
2020/12/08 07:23:40;;;;;;;26.13;11.52;;;26.10;2201.60;;;;;;5110786;28;20038;-77
2020/12/08 07:26:08;;;;;;;28.65;13.73;;;26.10;2201.60;;;;;;5109550;28;20051;-78
2020/12/08 07:28:34;;;;;;;12.75;7.47;;;26.10;2201.60;;;;;;5109491;28;20023;-77
2020/12/08 07:31:00;;;;;;;10.73;5.18;;;26.20;2201.60;;;;;;5110744;28;20034;-78
2020/12/08 07:33:31;;;;;;;6.70;4.53;;;26.20;2201.60;;;;;;5097067;27;20463;-77
2020/12/08 07:35:57;;;;;;;11.30;5.57;;;26.30;2201.60;;;;;;5097375;28;20053;-77
2020/12/08 07:38:23;;;;;;;11.07;5.88;;;26.30;2201.60;;;;;;5097479;28;20028;-78
2020/12/08 07:40:49;;;;;;;16.65;7.20;;;26.40;2201.60;;;;;;5096750;28;20036;-78
2020/12/08 07:43:14;;;;;;;33.05;14.32;;;26.50;2201.60;;;;;;5097222;28;20054;-78
2020/12/08 07:45:45;;;;;;;40.28;17.33;;;26.50;2201.60;;;;;;5095817;28;20028;-78
2020/12/08 07:48:20;;;;;;;43.45;15.45;;;26.50;2201.60;;;;;;5089639;28;20466;-77
2020/12/08 07:51:06;;;;;;;100.78;31.40;;;51.20;2227.20;;;;;;5076713;28;20432;-77
2020/12/08 07:53:36;;;;;;;95.95;31.70;;;51.20;2227.20;;;;;;5075714;28;20021;-77
2020/12/08 07:56:03;;;;;;;54.55;23.25;;;51.30;2227.20;;;;;;5076541;28;20029;-78
2020/12/08 07:58:29;;;;;;;28.52;12.18;;;51.40;2227.20;;;;;;5076582;28;20069;-78
2020/12/08 08:00:57;;;;;;;24.38;11.10;;;51.40;2227.20;;;;;;5076646;28;20036;-78
2020/12/08 08:03:24;;;;;;;23.75;8.30;;;51.50;2227.20;;;;;;5076267;28;20105;-77
2020/12/08 08:05:49;;;;;;;25.45;9.48;;;51.60;2227.20;;;;;;5076426;28;20032;-78
2020/12/08 08:08:15;;;;;;;16.65;8.75;;;51.70;2227.20;;;;;;5079817;28;20027;-77
2020/12/08 08:10:41;;;;;;;7.15;4.60;;;51.70;2227.20;;;;;;5096298;28;20032;-78
2020/12/08 08:13:06;;;;;;;18.50;8.20;;;51.80;2227.20;;;;;;5093315;28;20416;-76
2020/12/08 08:15:32;;;;;;;10.68;5.55;;;51.80;2227.20;;;;;;5085122;28;20028;-77
2020/12/08 08:17:58;;;;;;;27.38;7.30;;;51.90;2227.20;;;;;;5080743;28;20411;-78
2020/12/08 08:20:42;;;;;;;16.80;7.15;;;51.90;2201.60;;;;;;5077475;28;20079;-77
2020/12/08 08:23:07;;;;;;;9.35;4.95;;;52.00;2201.60;;;;;;5077041;28;20032;-77
2020/12/08 08:25:33;;;;;;;5.60;3.58;;;52.10;2201.60;;;;;;5082072;28;20366;-77
2020/12/08 08:27:59;;;;;;;8.90;5.03;;;52.10;2176.00;;;;;;5079746;28;20487;-76
2020/12/08 08:30:24;;;;;;;7.45;4.45;;;76.80;2176.00;;;;;;5082150;28;20025;-77
2020/12/08 08:32:50;;;;;;;8.65;3.90;;;76.90;2176.00;;;;;;5082423;28;20036;-77
2020/12/08 08:35:16;;;;;;;12.85;5.88;;;76.90;2176.00;;;;;;5078416;28;20029;-75
2020/12/08 08:37:41;;;;;;;7.75;4.55;;;77.00;2176.00;;;;;;5084243;28;20489;-76
2020/12/08 08:40:07;;;;;;;12.45;4.97;;;77.10;2176.00;;;;;;5105193;28;20036;-77
2020/12/08 08:42:33;;;;;;;11.80;4.80;;;77.10;2176.00;;;;;;5082239;28;20377;-78
2020/12/08 08:44:58;;;;;;;12.32;5.68;;;77.20;2150.40;;;;;;5074731;28;20056;-77
2020/12/08 08:47:24;;;;;;;7.20;3.88;;;77.30;2150.40;;;;;;5073372;28;20374;-79
2020/12/08 08:49:50;;;;;;;11.45;4.47;;;77.30;2124.80;;;;;;5075840;28;20029;-78
2020/12/08 08:52:15;;;;;;;7.20;4.05;;;77.40;2124.80;;;;;;5075601;28;20023;-77
2020/12/08 08:54:41;;;;;;;7.03;4.05;;;77.50;2124.80;;;;;;5076327;28;20016;-77
2020/12/08 08:57:07;;;;;;;21.50;8.95;;;77.50;2124.80;;;;;;5083188;28;20081;-77
2020/12/08 08:59:32;;;;;;;11.82;6.63;;;77.60;2124.80;;;;;;5084280;28;20032;-77
2020/12/08 09:01:58;;;;;;;18.20;9.05;;;77.60;2099.20;;;;;;5087791;28;20569;-79
2020/12/08 09:04:24;;;;;;;12.40;5.68;;;77.70;2099.20;;;;;;5095596;28;20024;-78
2020/12/08 09:06:50;;;;;;;10.35;4.47;;;102.40;2124.80;;;;;;5095502;28;20081;-78
2020/12/08 09:09:15;;;;;;;7.63;3.05;;;102.40;2099.20;;;;;;5087571;28;20027;-79
2020/12/08 09:11:41;;;;;;;11.48;4.53;;;102.40;2099.20;;;;;;5076066;28;20021;-77
2020/12/08 09:14:08;;;;;;;10.30;4.75;;;102.50;2099.20;;;;;;5079978;28;20453;-80
2020/12/08 09:16:33;;;;;;;11.20;4.97;;;102.60;2099.20;;;;;;5088344;28;20036;-78
2020/12/08 09:18:59;;;;;;;12.23;5.53;;;102.70;2073.60;;;;;;5095638;28;20154;-78
2020/12/08 09:21:49;;;;;;;13.35;4.95;;;102.70;2073.60;;;;;;5086639;28;20482;-78
2020/12/08 09:24:14;;;;;;;12.35;5.10;;;102.80;2073.60;;;;;;5079921;28;20047;-78
2020/12/08 09:26:41;;;;;;;8.07;4.22;;;102.90;2073.60;;;;;;5089327;28;20024;-78
2020/12/08 09:29:06;;;;;;;11.02;4.88;;;102.90;2073.60;;;;;;5088473;28;20465;-83
2020/12/08 09:31:32;;;;;;;6.70;4.18;;;103.00;2048.00;;;;;;5065688;28;20119;-79
2020/12/08 09:33:58;;;;;;;6.05;3.70;;;103.10;2048.00;;;;;;5075503;28;20355;-78
2020/12/08 09:36:26;;;;;;;5.35;3.40;;;103.10;2048.00;;;;;;5091061;28;20065;-84
2020/12/08 09:38:52;;;;;;;16.15;3.78;;;103.20;2022.40;;;;;;5095233;28;20397;-82
2020/12/08 09:41:18;;;;;;;10.50;3.75;;;103.30;2022.40;;;;;;5095440;28;20036;-88
2020/12/08 09:43:44;;;;;;;9.95;4.65;;;128.00;2048.00;;;;;;5078806;28;20481;-87
2020/12/08 09:46:09;;;;;;;12.38;4.68;;;128.00;2022.40;;;;;;5094723;28;20377;-89
2020/12/08 09:48:35;;;;;;;11.13;5.57;;;128.10;2048.00;;;;;;5095010;28;20031;-90
2020/12/08 09:51:01;;;;;;;9.05;3.80;;;128.20;2022.40;;;;;;5084744;28;20028;-89
2020/12/08 09:53:27;;;;;;;11.60;4.72;;;128.20;2022.40;;;;;;5078422;28;20545;-93
2020/12/08 09:55:53;;;;;;;11.27;4.32;;;128.30;2022.40;;;;;;5082865;28;20060;-92
2020/12/08 09:58:18;;;;;;;7.95;4.32;;;128.40;1996.80;;;;;;5081673;28;20021;-88
2020/12/08 10:00:44;;;;;;;7.82;4.47;;;128.60;1971.20;;;;;;5109218;28;20036;-82
2020/12/08 10:03:16;;;;;;;10.45;3.50;;;128.90;1945.60;;;;;;5107490;28;20028;-93
2020/12/08 10:11:23;;;;;;;9.07;4.15;;;179.60;1920.00;;;;;;5069882;28;20391;-74
2020/12/08 10:13:49;;;;;;;6.90;3.95;;;205.40;1689.60;;;;;;5069684;28;20040;-71
2020/12/08 10:16:23;;;;;;;8.30;4.60;;;230.50;1689.60;;;;;;5070201;28;20042;-74
2020/12/08 10:18:51;;;;;;;9.40;5.28;;;230.90;1612.80;;;;;;5049831;28;20112;-72
2020/12/08 10:21:21;;;;;;;7.00;4.57;;;231.20;1587.20;;;;;;5050126;28;20025;-72
2020/12/08 10:23:47;;;;;;;6.38;3.53;;;256.10;1561.60;;;;;;5049938;28;20108;-73
2020/12/08 10:26:13;;;;;;;14.25;7.50;;;256.30;1510.40;;;;;;5049771;28;20421;-72
2020/12/08 10:28:39;;;;;;;13.35;6.55;;;256.50;1484.80;;;;;;5050007;28;20029;-72
2020/12/08 10:31:04;;;;;;;8.93;5.55;;;256.70;1484.80;;;;;;5048332;28;20099;-72
2020/12/08 10:33:30;;;;;;;7.78;3.80;;;256.80;1459.20;;;;;;5049511;28;20033;-72
2020/12/08 10:35:56;;;;;;;8.20;5.05;;;281.60;1484.80;;;;;;5049443;28;20049;-72
2020/12/08 10:38:21;;;;;;;9.88;5.72;;;281.70;1459.20;;;;;;5049715;28;20083;-73
2020/12/08 10:40:47;;;;;;;10.07;4.13;;;281.80;1433.60;;;;;;5048494;28;20037;-71
2020/12/08 10:43:13;;;;;;;6.90;4.30;;;281.90;1433.60;;;;;;5049892;28;20022;-72
2020/12/08 10:45:39;;;;;;;5.07;3.45;;;282.00;1433.60;;;;;;5049652;28;20486;-69
2020/12/08 10:48:04;;;;;;;5.30;3.20;;;282.10;1433.60;;;;;;5049451;28;20502;-69
2020/12/08 10:50:30;;;;;;;10.90;3.58;;;282.20;1408.00;;;;;;5049622;28;20459;-69
2020/12/08 10:52:56;;;;;;;13.60;4.68;;;282.20;1382.40;;;;;;5049500;28;20021;-70
2020/12/08 10:55:23;;;;;;;10.57;4.60;;;282.20;1408.00;;;;;;5049034;28;20033;-69
2020/12/08 10:57:48;;;;;;;17.13;7.85;;;282.10;1382.40;;;;;;5048219;28;20049;-69
2020/12/08 11:00:14;;;;;;;19.67;6.15;;;282.10;1408.00;;;;;;5049176;28;20457;-69
2020/12/08 11:02:40;;;;;;;14.50;5.95;;;282.20;1408.00;;;;;;5048706;28;20041;-69
2020/12/08 11:05:07;;;;;;;13.48;5.70;;;282.20;1382.40;;;;;;5048196;28;20025;-69
2020/12/08 11:07:34;;;;;;;6.68;3.35;;;282.20;1382.40;;;;;;5048065;28;20029;-68
2020/12/08 11:10:00;;;;;;;8.38;3.75;;;282.30;1382.40;;;;;;5048469;28;20049;-69
2020/12/08 11:12:26;;;;;;;5.25;3.85;;;282.20;1382.40;;;;;;5049139;28;20021;-70
2020/12/08 11:14:52;;;;;;;8.10;4.47;;;282.30;1382.40;;;;;;5048027;28;20040;-72
2020/12/08 11:17:18;;;;;;;6.38;3.40;;;282.30;1408.00;;;;;;5048917;28;20021;-72
2020/12/08 11:19:43;;;;;;;8.43;3.80;;;282.50;1382.40;;;;;;5049106;28;20037;-72
2020/12/08 11:22:10;;;;;;;8.65;4.28;;;282.50;1382.40;;;;;;5038301;28;20040;-72
2020/12/08 11:24:38;;;;;;;11.52;4.28;;;307.20;1408.00;;;;;;5035366;28;20463;-72
2020/12/08 11:27:03;;;;;;;12.93;5.80;;;307.20;1382.40;;;;;;5035839;28;20055;-73
2020/12/08 11:29:29;;;;;;;11.05;5.45;;;307.20;1382.40;;;;;;5035571;28;20540;-72
2020/12/08 11:31:55;;;;;;;14.32;7.10;;;307.30;1382.40;;;;;;5034937;28;20042;-72
2020/12/08 11:34:20;;;;;;;12.27;6.22;;;307.30;1382.40;;;;;;5035271;28;20029;-72
2020/12/08 11:36:46;;;;;;;12.80;6.07;;;307.40;1408.00;;;;;;5034518;28;20029;-73
2020/12/08 11:39:12;;;;;;;11.93;5.45;;;307.40;1382.40;;;;;;5034972;28;20032;-73
2020/12/08 11:41:42;;;;;;;11.85;4.78;;;307.50;1382.40;;;;;;5035394;28;20044;-72
2020/12/08 11:44:11;;;;;;;11.82;5.35;;;307.40;1382.40;;;;;;5035238;28;20109;-72
2020/12/08 11:46:37;;;;;;;9.68;5.20;;;307.50;1382.40;;;;;;5036081;28;20079;-72
2020/12/08 11:49:03;;;;;;;10.90;4.97;;;307.50;1382.40;;;;;;5035831;28;20076;-72
2020/12/08 11:51:28;;;;;;;9.65;5.00;;;307.60;1382.40;;;;;;5028675;28;20053;-73
2020/12/08 11:53:55;;;;;;;15.57;8.90;;;307.60;1382.40;;;;;;5030368;28;20021;-72
2020/12/08 11:56:21;;;;;;;18.27;9.52;;;307.70;1382.40;;;;;;5029380;28;20075;-73
2020/12/08 11:58:47;;;;;;;8.23;6.10;;;307.70;1382.40;;;;;;5034123;28;20033;-72
2020/12/08 12:01:12;;;;;;;8.25;4.60;;;307.70;1382.40;;;;;;5034773;28;20434;-73
2020/12/08 12:03:38;;;;;;;7.88;4.43;;;307.70;1356.80;;;;;;5034314;28;20036;-73
2020/12/08 12:06:04;;;;;;;5.72;4.18;;;307.70;1382.40;;;;;;5034987;28;20033;-73
2020/12/08 12:08:29;;;;;;;9.90;5.18;;;307.70;1356.80;;;;;;5034939;28;20037;-72
2020/12/08 12:10:55;;;;;;;10.00;5.38;;;307.70;1382.40;;;;;;5033859;28;20054;-72
2020/12/08 12:13:21;;;;;;;12.10;6.25;;;307.70;1382.40;;;;;;5034909;28;20047;-73
2020/12/08 12:15:46;;;;;;;8.38;5.13;;;307.70;1382.40;;;;;;5034724;28;20355;-72
2020/12/08 12:18:12;;;;;;;6.78;4.25;;;307.60;1382.40;;;;;;5033521;28;20022;-72
2020/12/08 12:20:38;;;;;;;13.68;5.05;;;307.70;1382.40;;;;;;5031774;28;20060;-72
2020/12/08 12:23:04;;;;;;;8.35;5.15;;;307.70;1382.40;;;;;;5034493;28;20414;-72
2020/12/08 12:25:30;;;;;;;14.65;8.48;;;307.60;1382.40;;;;;;5034242;28;20045;-72
2020/12/08 12:27:55;;;;;;;37.55;23.30;;;307.60;1382.40;;;;;;5034559;28;20025;-73
2020/12/08 12:30:21;;;;;;;25.48;16.23;;;307.60;1382.40;;;;;;5034483;28;20091;-72
2020/12/08 12:32:47;;;;;;;20.38;13.50;;;307.60;1382.40;;;;;;5031700;28;20475;-72
2020/12/08 12:35:12;;;;;;;17.65;10.52;;;307.50;1382.40;;;;;;5034266;28;20064;-73
2020/12/08 12:37:38;;;;;;;15.85;8.30;;;307.50;1382.40;;;;;;5030913;28;20038;-73
2020/12/08 12:40:04;;;;;;;12.98;7.38;;;307.50;1382.40;;;;;;5023823;28;20030;-73
2020/12/08 12:42:30;;;;;;;14.50;6.72;;;307.50;1382.40;;;;;;5023208;28;20507;-73
2020/12/08 12:44:57;;;;;;;9.20;5.68;;;307.40;1382.40;;;;;;5022060;28;20112;-73
2020/12/08 12:47:22;;;;;;;8.70;5.88;;;307.40;1382.40;;;;;;5023689;28;20022;-73
2020/12/08 12:49:48;;;;;;;15.00;7.20;;;307.40;1382.40;;;;;;5022188;28;20044;-72
2020/12/08 12:52:14;;;;;;;13.20;7.47;;;307.40;1382.40;;;;;;5024066;28;20112;-72
2020/12/08 12:54:40;;;;;;;22.42;9.68;;;307.30;1408.00;;;;;;5020921;28;20030;-74
2020/12/08 12:57:05;;;;;;;10.55;6.63;;;307.30;1408.00;;;;;;5025664;28;20056;-75
2020/12/08 12:59:32;;;;;;;14.88;8.18;;;307.30;1408.00;;;;;;5032474;28;20037;-74
2020/12/08 13:01:58;;;;;;;15.40;8.40;;;307.20;1408.00;;;;;;5030224;28;20025;-72
2020/12/08 13:04:24;;;;;;;22.65;10.98;;;282.50;1382.40;;;;;;5024747;28;20067;-72
2020/12/08 13:06:50;;;;;;;29.33;12.70;;;282.50;1382.40;;;;;;5029349;28;20056;-73
2020/12/08 13:09:16;;;;;;;21.13;10.43;;;282.30;1382.40;;;;;;5029362;28;20090;-72
2020/12/08 13:11:42;;;;;;;20.27;9.75;;;282.20;1382.40;;;;;;5023743;28;20485;-73
2020/12/08 13:14:07;;;;;;;15.73;7.22;;;282.10;1408.00;;;;;;5021130;28;20033;-73
2020/12/08 13:16:33;;;;;;;10.18;6.72;;;282.00;1408.00;;;;;;5023790;28;20156;-73
2020/12/08 13:18:59;;;;;;;10.77;5.40;;;281.90;1408.00;;;;;;5022476;28;20136;-71
2020/12/08 13:21:24;;;;;;;8.43;4.65;;;281.80;1408.00;;;;;;5023903;28;20487;-73
2020/12/08 13:23:50;;;;;;;8.55;3.35;;;281.80;1433.60;;;;;;5016052;28;20188;-73
2020/12/08 13:26:16;;;;;;;8.50;4.18;;;281.70;1433.60;;;;;;5021730;28;20072;-75
2020/12/08 13:28:42;;;;;;;10.20;3.97;;;281.60;1433.60;;;;;;5022816;28;20009;-73
2020/12/08 13:31:09;;;;;;;6.70;3.75;;;281.60;1459.20;;;;;;5023264;28;20044;-72
2020/12/08 13:33:34;;;;;;;14.82;6.47;;;281.60;1459.20;;;;;;5019406;28;20486;-72
2020/12/08 13:36:00;;;;;;;12.98;5.57;;;281.60;1459.20;;;;;;5023908;28;20034;-73
2020/12/08 13:38:27;;;;;;;12.02;5.63;;;281.60;1459.20;;;;;;5021163;28;20089;-73
2020/12/08 13:40:53;;;;;;;8.32;4.97;;;256.90;1433.60;;;;;;5022579;28;20072;-73
2020/12/08 13:43:19;;;;;;;6.65;4.03;;;256.90;1433.60;;;;;;5022618;28;20033;-73
2020/12/08 13:45:47;;;;;;;10.57;4.07;;;256.80;1459.20;;;;;;5022931;28;20021;-73
2020/12/08 13:48:14;;;;;;;11.40;5.47;;;256.80;1459.20;;;;;;5028547;28;20105;-75
2020/12/08 13:50:40;;;;;;;14.90;6.50;;;256.70;1459.20;;;;;;5022626;28;20065;-73
2020/12/08 13:53:10;;;;;;;10.27;5.40;;;256.60;1459.20;;;;;;5026556;28;20034;-75
2020/12/08 13:55:37;;;;;;;8.85;4.40;;;256.60;1459.20;;;;;;5021476;28;20072;-73
2020/12/08 13:58:04;;;;;;;6.18;4.00;;;256.60;1459.20;;;;;;5027214;28;20022;-72
2020/12/08 14:00:33;;;;;;;6.80;4.18;;;256.50;1459.20;;;;;;5031285;28;20029;-72
2020/12/08 14:03:03;;;;;;;7.32;4.07;;;256.40;1484.80;;;;;;5032879;28;20025;-73
2020/12/08 14:05:30;;;;;;;9.02;3.83;;;256.40;1484.80;;;;;;5033026;28;20044;-72
2020/12/08 14:07:56;;;;;;;5.78;3.95;;;256.30;1484.80;;;;;;5032403;28;20087;-73
2020/12/08 14:10:23;;;;;;;12.27;6.45;;;256.20;1484.80;;;;;;5031199;28;20057;-73
2020/12/08 14:12:48;;;;;;;19.67;8.50;;;256.20;1484.80;;;;;;5032842;28;20049;-70
2020/12/08 14:15:26;;;;;;;20.70;10.43;;;256.10;1484.80;;;;;;5031084;28;20029;-72
2020/12/08 14:17:51;;;;;;;17.90;9.77;;;256.00;1510.40;;;;;;5032703;28;20375;-72
2020/12/08 14:20:19;;;;;;;19.08;10.07;;;231.30;1510.40;;;;;;5030744;28;20022;-72
2020/12/08 14:22:45;;;;;;;11.98;7.10;;;231.30;1510.40;;;;;;5011443;28;20034;-73
2020/12/08 14:25:11;;;;;;;15.23;6.03;;;231.20;1510.40;;;;;;5012910;28;20079;-73
2020/12/08 14:27:37;;;;;;;10.98;6.22;;;231.20;1510.40;;;;;;5013068;28;20104;-73
2020/12/08 14:30:05;;;;;;;10.80;6.50;;;231.10;1536.00;;;;;;5012519;28;20030;-73
2020/12/08 14:32:38;;;;;;;13.40;8.30;;;231.10;1536.00;;;;;;5013036;28;20109;-73
2020/12/08 14:35:06;;;;;;;17.70;8.45;;;231.00;1536.00;;;;;;5011834;28;20037;-73
2020/12/08 14:37:32;;;;;;;29.35;9.15;;;231.00;1536.00;;;;;;5012541;28;20033;-73
2020/12/08 14:39:58;;;;;;;15.43;8.45;;;230.90;1536.00;;;;;;5012371;28;20057;-73
2020/12/08 14:42:24;;;;;;;17.15;9.25;;;230.90;1536.00;;;;;;5012494;28;20100;-72
2020/12/08 14:44:50;;;;;;;32.78;18.83;;;230.80;1536.00;;;;;;5012712;28;20033;-73
2020/12/08 14:47:16;;;;;;;63.30;33.58;;;230.80;1536.00;;;;;;5011510;28;20033;-72
2020/12/08 14:49:41;;;;;;;49.83;25.77;;;230.70;1638.40;;;;;;5012599;28;20044;-71
2020/12/08 14:52:08;;;;;;;36.42;19.48;;;230.70;1587.20;;;;;;5010121;28;20069;-71
2020/12/08 14:54:34;;;;;;;57.00;24.05;;;230.70;1561.60;;;;;;5012341;28;20434;-71
2020/12/08 14:57:00;;;;;;;67.78;25.73;;;230.60;1561.60;;;;;;5014583;28;20049;-71
2020/12/08 14:59:26;;;;;;;66.55;24.92;;;230.50;1561.60;;;;;;5014815;28;20056;-71
2020/12/08 15:01:53;;;;;;;67.95;24.25;;;230.50;1587.20;;;;;;5016510;28;20018;-71
2020/12/08 15:04:19;;;;;;;68.97;25.70;;;230.40;1587.20;;;;;;5016516;28;20029;-71
2020/12/08 15:06:49;;;;;;;53.85;23.35;;;230.40;1612.80;;;;;;5015753;28;20101;-71
2020/12/08 15:09:17;;;;;;;54.50;21.95;;;230.40;1612.80;;;;;;5015673;28;20030;-71
2020/12/08 15:11:47;;;;;;;45.80;18.10;;;205.70;1612.80;;;;;;5016131;28;20399;-71
2020/12/08 15:14:14;;;;;;;29.08;14.23;;;205.70;1612.80;;;;;;5015957;28;20022;-71
2020/12/08 15:16:40;;;;;;;32.22;14.57;;;205.60;1638.40;;;;;;5016081;28;20054;-71
2020/12/08 15:19:06;;;;;;;30.13;13.02;;;205.60;1638.40;;;;;;5016090;28;20372;-73
2020/12/08 15:21:40;;;;;;;37.97;12.02;;;205.60;1638.40;;;;;;5015603;28;20672;-72
2020/12/08 15:24:06;;;;;;;26.65;15.13;;;205.50;1664.00;;;;;;5014539;28;20049;-72
2020/12/08 15:26:33;;;;;;;35.95;17.73;;;205.50;1638.40;;;;;;5024101;28;20541;-73
2020/12/08 15:28:59;;;;;;;38.28;22.60;;;205.40;1664.00;;;;;;5023341;28;20053;-73
2020/12/08 15:31:25;;;;;;;36.13;22.17;;;205.40;1638.40;;;;;;5023426;28;20069;-73
2020/12/08 15:33:53;;;;;;;33.35;20.83;;;205.30;1664.00;;;;;;5025723;28;20040;-74
2020/12/08 15:36:20;;;;;;;33.13;23.00;;;205.30;1664.00;;;;;;5024056;28;20022;-73
2020/12/08 15:38:46;;;;;;;37.75;25.85;;;205.30;1638.40;;;;;;5021576;28;20049;-74
2020/12/08 15:41:12;;;;;;;40.95;27.15;;;205.20;1664.00;;;;;;5015606;28;20404;-73
2020/12/08 15:43:37;;;;;;;33.42;24.05;;;205.20;1664.00;;;;;;5015305;28;20065;-73
2020/12/08 15:46:03;;;;;;;37.75;20.77;;;205.20;1664.00;;;;;;5034682;28;20029;-73
2020/12/08 15:48:30;;;;;;;32.95;18.20;;;205.10;1664.00;;;;;;5055027;28;20036;-73
2020/12/08 15:50:55;;;;;;;28.13;15.55;;;205.10;1664.00;;;;;;5053871;28;20063;-72
2020/12/08 15:53:21;;;;;;;19.48;10.77;;;205.10;1664.00;;;;;;5054110;28;20029;-73
2020/12/08 15:55:47;;;;;;;16.15;9.52;;;205.10;1664.00;;;;;;5054984;28;20386;-73
2020/12/08 15:58:12;;;;;;;18.55;11.13;;;205.00;1664.00;;;;;;5053864;28;20394;-73
2020/12/08 16:00:38;;;;;;;20.85;11.63;;;204.90;1664.00;;;;;;5054095;28;20447;-72
2020/12/08 16:03:04;;;;;;;24.17;12.38;;;204.90;1664.00;;;;;;5035924;28;20553;-72
2020/12/08 16:05:29;;;;;;;25.98;12.10;;;204.90;1664.00;;;;;;5015266;28;20057;-72
2020/12/08 16:07:55;;;;;;;27.98;12.93;;;204.80;1689.60;;;;;;5013260;28;20033;-68
2020/12/08 16:10:21;;;;;;;25.98;11.13;;;204.90;1715.20;;;;;;5014891;28;20140;-72
2020/12/08 16:12:47;;;;;;;24.58;10.68;;;204.90;1689.60;;;;;;5014623;28;20117;-72
2020/12/08 16:15:13;;;;;;;18.23;10.98;;;204.80;1689.60;;;;;;5014613;28;20026;-71
2020/12/08 16:17:40;;;;;;;20.55;10.48;;;204.80;1689.60;;;;;;5014993;28;20096;-72
2020/12/08 16:20:12;;;;;;;15.55;8.57;;;204.80;1689.60;;;;;;5014824;28;20053;-72
2020/12/08 16:22:41;;;;;;;17.98;8.05;;;180.10;1664.00;;;;;;5014256;28;20033;-72
2020/12/08 16:25:07;;;;;;;17.38;8.55;;;180.10;1664.00;;;;;;5013849;28;20050;-72
2020/12/08 16:27:33;;;;;;;14.65;7.22;;;180.00;1664.00;;;;;;5014435;28;20029;-72
2020/12/08 16:29:59;;;;;;;15.85;8.73;;;179.90;1664.00;;;;;;5012974;28;20049;-70
2020/12/08 16:32:25;;;;;;;15.90;7.88;;;179.90;1689.60;;;;;;5014720;28;20032;-71
2020/12/08 16:34:50;;;;;;;18.33;8.65;;;179.90;1689.60;;;;;;5013431;28;20026;-71
2020/12/08 16:37:17;;;;;;;15.05;8.57;;;179.90;1664.00;;;;;;5013976;28;20057;-70
2020/12/08 16:39:43;;;;;;;19.65;8.52;;;179.80;1689.60;;;;;;5014441;28;20065;-70
2020/12/08 16:42:09;;;;;;;17.30;9.13;;;179.80;1689.60;;;;;;5012553;28;20072;-71
2020/12/08 16:44:35;;;;;;;19.95;10.00;;;179.80;1689.60;;;;;;5014235;28;20088;-71
2020/12/08 16:47:01;;;;;;;23.52;10.60;;;179.70;1689.60;;;;;;5014010;28;20427;-70
2020/12/08 16:49:27;;;;;;;22.23;10.25;;;179.70;1689.60;;;;;;5014396;28;20030;-73
2020/12/08 16:51:53;;;;;;;18.90;9.77;;;179.70;1689.60;;;;;;5013474;28;20030;-71
2020/12/08 16:54:19;;;;;;;25.38;12.68;;;179.60;1689.60;;;;;;5014263;28;20484;-71
2020/12/08 16:56:45;;;;;;;36.10;15.02;;;179.60;1689.60;;;;;;5014338;28;20032;-71
2020/12/08 16:59:11;;;;;;;31.67;14.55;;;179.60;1689.60;;;;;;5013832;28;20539;-71
2020/12/08 17:01:37;;;;;;;29.85;13.82;;;179.60;1689.60;;;;;;5014123;28;20057;-71
2020/12/08 17:04:04;;;;;;;29.58;12.73;;;179.50;1715.20;;;;;;5014074;28;20388;-71
2020/12/08 17:06:30;;;;;;;40.78;16.83;;;179.50;1715.20;;;;;;5013376;28;20038;-71
2020/12/08 17:08:56;;;;;;;59.25;20.73;;;179.50;1715.20;;;;;;5013607;28;20026;-72
2020/12/08 17:11:22;;;;;;;37.13;16.08;;;179.50;1715.20;;;;;;5013588;28;20054;-71
2020/12/08 17:13:49;;;;;;;26.58;11.93;;;179.40;1715.20;;;;;;5013370;28;20464;-71
2020/12/08 17:16:15;;;;;;;23.17;12.35;;;179.40;1715.20;;;;;;5014267;28;20045;-71
2020/12/08 17:18:41;;;;;;;32.50;15.18;;;179.30;1715.20;;;;;;5013491;28;20467;-71
2020/12/08 17:21:07;;;;;;;38.58;15.98;;;179.30;1715.20;;;;;;5011947;28;20037;-71
2020/12/08 17:23:34;;;;;;;39.53;18.35;;;179.30;1715.20;;;;;;5020916;28;20033;-72
2020/12/08 17:26:00;;;;;;;31.13;12.77;;;179.30;1715.20;;;;;;5013819;28;20084;-71
2020/12/08 17:28:26;;;;;;;27.23;12.82;;;179.20;1715.20;;;;;;5013347;28;20076;-71
2020/12/08 17:30:51;;;;;;;25.63;11.85;;;179.20;1715.20;;;;;;5012352;28;20046;-71
2020/12/08 17:33:17;;;;;;;21.90;11.32;;;179.20;1715.20;;;;;;5013441;28;20129;-72
2020/12/08 17:35:43;;;;;;;21.77;10.80;;;179.20;1715.20;;;;;;5011515;28;20057;-72
2020/12/08 17:38:09;;;;;;;16.00;8.95;;;179.20;1715.20;;;;;;5013501;28;20034;-72
2020/12/08 17:40:35;;;;;;;14.88;8.93;;;154.50;1715.20;;;;;;5013179;28;20022;-72
2020/12/08 17:43:01;;;;;;;14.27;7.30;;;154.50;1715.20;;;;;;5012932;28;20033;-73
2020/12/08 17:45:26;;;;;;;11.80;6.80;;;179.30;1715.20;;;;;;5011806;28;20033;-74
2020/12/08 17:47:55;;;;;;;14.02;6.72;;;154.50;1715.20;;;;;;5013418;28;20030;-74
2020/12/08 17:50:21;;;;;;;14.13;7.43;;;154.40;1715.20;;;;;;5024535;28;20068;-71
2020/12/08 17:52:51;;;;;;;10.70;6.75;;;154.40;1715.20;;;;;;5033195;28;20471;-71
2020/12/08 17:55:17;;;;;;;14.32;7.63;;;154.40;1715.20;;;;;;5032893;28;20033;-72
2020/12/08 17:57:43;;;;;;;13.68;8.23;;;154.40;1715.20;;;;;;5032034;28;20037;-72
2020/12/08 18:00:14;;;;;;;11.95;7.40;;;154.30;1715.20;;;;;;5033074;28;20185;-72
2020/12/08 18:02:41;;;;;;;13.85;8.45;;;154.30;1715.20;;;;;;5032953;28;20040;-72
2020/12/08 18:05:08;;;;;;;34.70;18.90;;;154.30;1740.80;;;;;;5031343;28;20030;-72
2020/12/08 18:07:38;;;;;;;46.10;29.13;;;154.20;1740.80;;;;;;5020989;28;20041;-72
2020/12/08 18:10:06;;;;;;;36.05;22.75;;;154.30;1740.80;;;;;;5013613;28;20054;-72
2020/12/08 18:12:32;;;;;;;26.63;17.15;;;154.20;1740.80;;;;;;5026611;28;20036;-71
2020/12/08 18:14:59;;;;;;;21.58;14.10;;;154.20;1740.80;;;;;;5031449;28;20029;-72
2020/12/08 18:17:25;;;;;;;27.15;13.80;;;154.20;1740.80;;;;;;5032530;28;20371;-71
2020/12/08 18:19:50;;;;;;;30.20;16.13;;;154.20;1740.80;;;;;;5032377;28;20075;-72
2020/12/08 18:22:16;;;;;;;37.08;18.40;;;154.20;1740.80;;;;;;5031735;28;20033;-71
2020/12/08 18:24:42;;;;;;;32.97;16.30;;;154.20;1740.80;;;;;;5012660;28;20109;-72
2020/12/08 18:27:07;;;;;;;36.80;17.83;;;154.20;1740.80;;;;;;5012769;28;20116;-71
2020/12/08 18:29:34;;;;;;;49.08;21.08;;;154.10;1740.80;;;;;;5013363;28;20034;-71
2020/12/08 18:32:01;;;;;;;50.38;17.23;;;154.10;1740.80;;;;;;5014918;28;20057;-71
2020/12/08 18:34:27;;;;;;;75.43;29.00;;;154.30;1945.60;;;;;;5016609;28;20045;-71
2020/12/08 18:36:54;;;;;;;90.78;32.22;;;154.20;1817.60;;;;;;5015367;28;20045;-72
2020/12/08 18:39:20;;;;;;;98.20;34.78;;;154.20;1766.40;;;;;;5016718;28;20030;-71